sensor_id;sensor_type;location;lat;lon;timestamp;temperature;humidity
17632;DHT22;8934;51.194;17.150;2023-06-22T00:01:22;20.60;99.90
17632;DHT22;8934;51.194;17.150;2023-06-22T00:04:10;20.70;99.90
17632;DHT22;8934;51.194;17.150;2023-06-22T00:06:58;20.70;99.90
17632;DHT22;8934;51.194;17.150;2023-06-22T00:09:46;20.70;99.90
17632;DHT22;8934;51.194;17.150;2023-06-22T00:12:33;20.70;99.90
17632;DHT22;8934;51.194;17.150;2023-06-22T00:15:20;20.60;99.90
17632;DHT22;8934;51.194;17.150;2023-06-22T00:18:10;20.60;99.90
17632;DHT22;8934;51.194;17.150;2023-06-22T00:20:58;20.60;99.90
17632;DHT22;8934;51.194;17.150;2023-06-22T00:23:46;20.60;99.90
17632;DHT22;8934;51.194;17.150;2023-06-22T00:26:34;20.60;99.90
17632;DHT22;8934;51.194;17.150;2023-06-22T00:29:22;20.60;99.90
17632;DHT22;8934;51.194;17.150;2023-06-22T00:32:11;20.60;99.90
17632;DHT22;8934;51.194;17.150;2023-06-22T00:35:00;20.50;99.90
17632;DHT22;8934;51.194;17.150;2023-06-22T00:37:48;20.40;99.90
17632;DHT22;8934;51.194;17.150;2023-06-22T00:40:39;20.30;99.90
17632;DHT22;8934;51.194;17.150;2023-06-22T00:43:26;20.20;99.90
17632;DHT22;8934;51.194;17.150;2023-06-22T00:46:14;20.10;99.90
17632;DHT22;8934;51.194;17.150;2023-06-22T05:33:45;20.00;99.90
17632;DHT22;8934;51.194;17.150;2023-06-22T05:36:32;22.00;99.90
17632;DHT22;8934;51.194;17.150;2023-06-22T05:39:20;22.00;99.90
17632;DHT22;8934;51.194;17.150;2023-06-22T05:42:09;22.20;99.90
17632;DHT22;8934;51.194;17.150;2023-06-22T05:44:56;22.30;99.90
17632;DHT22;8934;51.194;17.150;2023-06-22T05:47:45;22.40;99.90
17632;DHT22;8934;51.194;17.150;2023-06-22T05:50:32;22.60;99.90
17632;DHT22;8934;51.194;17.150;2023-06-22T05:53:20;22.60;99.90
17632;DHT22;8934;51.194;17.150;2023-06-22T05:56:08;22.70;99.90
17632;DHT22;8934;51.194;17.150;2023-06-22T05:58:57;22.90;99.90
17632;DHT22;8934;51.194;17.150;2023-06-22T06:01:45;22.90;99.90
17632;DHT22;8934;51.194;17.150;2023-06-22T06:04:36;23.10;99.90
17632;DHT22;8934;51.194;17.150;2023-06-22T06:07:23;23.10;99.90
17632;DHT22;8934;51.194;17.150;2023-06-22T06:10:12;23.10;99.90
17632;DHT22;8934;51.194;17.150;2023-06-22T06:12:59;23.20;99.90
17632;DHT22;8934;51.194;17.150;2023-06-22T06:15:52;23.30;99.90
17632;DHT22;8934;51.194;17.150;2023-06-22T06:18:41;23.50;99.90
17632;DHT22;8934;51.194;17.150;2023-06-22T06:21:28;23.70;99.90
17632;DHT22;8934;51.194;17.150;2023-06-22T06:24:16;23.80;99.90
17632;DHT22;8934;51.194;17.150;2023-06-22T06:27:04;23.90;99.90
17632;DHT22;8934;51.194;17.150;2023-06-22T06:29:52;24.10;99.90
17632;DHT22;8934;51.194;17.150;2023-06-22T06:32:41;24.20;99.90
17632;DHT22;8934;51.194;17.150;2023-06-22T06:35:29;24.40;99.90
17632;DHT22;8934;51.194;17.150;2023-06-22T06:38:17;24.50;99.90
17632;DHT22;8934;51.194;17.150;2023-06-22T06:41:04;24.70;99.90
17632;DHT22;8934;51.194;17.150;2023-06-22T06:43:52;24.70;99.90
17632;DHT22;8934;51.194;17.150;2023-06-22T06:46:39;24.90;99.90
17632;DHT22;8934;51.194;17.150;2023-06-22T06:49:30;25.00;99.90
17632;DHT22;8934;51.194;17.150;2023-06-22T06:52:17;25.10;99.90
17632;DHT22;8934;51.194;17.150;2023-06-22T06:55:06;25.20;99.90
17632;DHT22;8934;51.194;17.150;2023-06-22T06:57:58;25.30;99.90
17632;DHT22;8934;51.194;17.150;2023-06-22T07:00:46;25.30;99.90
17632;DHT22;8934;51.194;17.150;2023-06-22T07:03:33;25.10;99.90
17632;DHT22;8934;51.194;17.150;2023-06-22T07:06:22;25.00;99.90
17632;DHT22;8934;51.194;17.150;2023-06-22T07:09:15;25.00;99.90
17632;DHT22;8934;51.194;17.150;2023-06-22T07:12:04;25.00;99.90
17632;DHT22;8934;51.194;17.150;2023-06-22T07:14:53;25.10;99.90
17632;DHT22;8934;51.194;17.150;2023-06-22T07:17:40;25.20;99.90
17632;DHT22;8934;51.194;17.150;2023-06-22T07:20:28;25.20;99.90
17632;DHT22;8934;51.194;17.150;2023-06-22T07:23:18;25.30;99.90
17632;DHT22;8934;51.194;17.150;2023-06-22T07:26:05;25.30;99.90
17632;DHT22;8934;51.194;17.150;2023-06-22T07:28:54;25.30;99.90
17632;DHT22;8934;51.194;17.150;2023-06-22T07:31:42;25.40;99.90
17632;DHT22;8934;51.194;17.150;2023-06-22T07:34:29;25.60;99.90
17632;DHT22;8934;51.194;17.150;2023-06-22T07:37:17;25.80;99.90
17632;DHT22;8934;51.194;17.150;2023-06-22T07:40:07;26.00;99.90
17632;DHT22;8934;51.194;17.150;2023-06-22T07:42:55;26.10;99.90
17632;DHT22;8934;51.194;17.150;2023-06-22T07:45:48;26.20;99.90
17632;DHT22;8934;51.194;17.150;2023-06-22T07:48:38;26.30;99.90
17632;DHT22;8934;51.194;17.150;2023-06-22T07:51:28;26.50;99.90
17632;DHT22;8934;51.194;17.150;2023-06-22T07:54:15;26.70;99.90
17632;DHT22;8934;51.194;17.150;2023-06-22T07:57:05;27.10;99.90
17632;DHT22;8934;51.194;17.150;2023-06-22T07:59:53;27.40;99.90
17632;DHT22;8934;51.194;17.150;2023-06-22T08:02:41;27.80;99.90
17632;DHT22;8934;51.194;17.150;2023-06-22T08:05:29;28.00;99.90
17632;DHT22;8934;51.194;17.150;2023-06-22T08:08:16;28.10;99.90
17632;DHT22;8934;51.194;17.150;2023-06-22T08:11:04;28.00;99.90
17632;DHT22;8934;51.194;17.150;2023-06-22T08:13:53;28.00;99.90
17632;DHT22;8934;51.194;17.150;2023-06-22T08:16:42;27.70;99.90
17632;DHT22;8934;51.194;17.150;2023-06-22T08:19:29;27.40;99.90
17632;DHT22;8934;51.194;17.150;2023-06-22T08:22:17;27.20;99.90
17632;DHT22;8934;51.194;17.150;2023-06-22T08:25:06;27.50;99.90
17632;DHT22;8934;51.194;17.150;2023-06-22T08:27:53;27.60;99.90
17632;DHT22;8934;51.194;17.150;2023-06-22T08:30:42;27.60;99.90
17632;DHT22;8934;51.194;17.150;2023-06-22T08:33:30;27.80;99.90
17632;DHT22;8934;51.194;17.150;2023-06-22T08:36:18;28.20;99.90
17632;DHT22;8934;51.194;17.150;2023-06-22T08:39:06;28.40;99.90
17632;DHT22;8934;51.194;17.150;2023-06-22T08:41:54;28.40;99.90
17632;DHT22;8934;51.194;17.150;2023-06-22T08:44:42;28.50;99.90
17632;DHT22;8934;51.194;17.150;2023-06-22T08:47:31;28.40;99.90
17632;DHT22;8934;51.194;17.150;2023-06-22T08:50:18;28.10;99.90
17632;DHT22;8934;51.194;17.150;2023-06-22T08:53:06;28.00;99.90
17632;DHT22;8934;51.194;17.150;2023-06-22T08:55:53;28.30;99.90
17632;DHT22;8934;51.194;17.150;2023-06-22T08:58:41;28.50;99.90
17632;DHT22;8934;51.194;17.150;2023-06-22T09:01:29;28.70;99.90
17632;DHT22;8934;51.194;17.150;2023-06-22T09:04:17;28.80;99.90
17632;DHT22;8934;51.194;17.150;2023-06-22T09:07:08;28.60;99.90
17632;DHT22;8934;51.194;17.150;2023-06-22T09:09:56;28.10;99.90
17632;DHT22;8934;51.194;17.150;2023-06-22T09:12:45;27.70;99.90
17632;DHT22;8934;51.194;17.150;2023-06-22T09:15:33;27.50;99.90
17632;DHT22;8934;51.194;17.150;2023-06-22T09:18:21;27.50;99.90
17632;DHT22;8934;51.194;17.150;2023-06-22T09:21:10;27.70;99.90
17632;DHT22;8934;51.194;17.150;2023-06-22T09:23:57;28.30;99.90
17632;DHT22;8934;51.194;17.150;2023-06-22T09:26:45;28.90;99.90
17632;DHT22;8934;51.194;17.150;2023-06-22T09:29:33;29.50;99.90
17632;DHT22;8934;51.194;17.150;2023-06-22T09:32:20;29.80;99.90
17632;DHT22;8934;51.194;17.150;2023-06-22T09:35:08;29.90;99.90
17632;DHT22;8934;51.194;17.150;2023-06-22T09:38:03;30.00;99.90
17632;DHT22;8934;51.194;17.150;2023-06-22T09:40:51;30.30;99.90
17632;DHT22;8934;51.194;17.150;2023-06-22T09:43:38;30.40;99.90
17632;DHT22;8934;51.194;17.150;2023-06-22T09:46:25;30.70;99.90
17632;DHT22;8934;51.194;17.150;2023-06-22T09:49:14;31.10;99.90
17632;DHT22;8934;51.194;17.150;2023-06-22T09:52:01;31.00;99.90
17632;DHT22;8934;51.194;17.150;2023-06-22T09:54:50;31.00;99.90
17632;DHT22;8934;51.194;17.150;2023-06-22T09:57:38;31.20;99.90
17632;DHT22;8934;51.194;17.150;2023-06-22T10:00:26;31.40;99.90
17632;DHT22;8934;51.194;17.150;2023-06-22T10:03:14;31.00;99.90
17632;DHT22;8934;51.194;17.150;2023-06-22T10:06:02;30.90;99.90
17632;DHT22;8934;51.194;17.150;2023-06-22T10:08:50;30.90;99.90
17632;DHT22;8934;51.194;17.150;2023-06-22T10:11:39;31.10;99.90
17632;DHT22;8934;51.194;17.150;2023-06-22T10:14:27;31.00;99.90
17632;DHT22;8934;51.194;17.150;2023-06-22T10:17:16;31.00;99.90
17632;DHT22;8934;51.194;17.150;2023-06-22T10:20:04;31.00;99.90
17632;DHT22;8934;51.194;17.150;2023-06-22T10:22:58;31.20;99.90
17632;DHT22;8934;51.194;17.150;2023-06-22T10:25:45;30.90;99.90
17632;DHT22;8934;51.194;17.150;2023-06-22T10:28:35;30.60;99.90
17632;DHT22;8934;51.194;17.150;2023-06-22T10:31:22;30.60;99.90
17632;DHT22;8934;51.194;17.150;2023-06-22T10:34:10;31.00;99.90
17632;DHT22;8934;51.194;17.150;2023-06-22T10:36:58;31.30;99.90
17632;DHT22;8934;51.194;17.150;2023-06-22T10:39:45;31.40;99.90
17632;DHT22;8934;51.194;17.150;2023-06-22T10:42:33;31.90;99.90
17632;DHT22;8934;51.194;17.150;2023-06-22T10:45:21;32.20;99.90
17632;DHT22;8934;51.194;17.150;2023-06-22T10:48:09;32.30;99.90
17632;DHT22;8934;51.194;17.150;2023-06-22T10:50:57;32.40;99.90
17632;DHT22;8934;51.194;17.150;2023-06-22T10:53:44;32.70;99.90
17632;DHT22;8934;51.194;17.150;2023-06-22T10:56:32;33.10;99.90
17632;DHT22;8934;51.194;17.150;2023-06-22T10:59:20;33.50;99.90
17632;DHT22;8934;51.194;17.150;2023-06-22T11:02:11;33.70;99.90
17632;DHT22;8934;51.194;17.150;2023-06-22T11:04:58;33.70;97.90
17632;DHT22;8934;51.194;17.150;2023-06-22T11:07:47;33.30;98.10
17632;DHT22;8934;51.194;17.150;2023-06-22T11:10:36;32.90;99.90
17632;DHT22;8934;51.194;17.150;2023-06-22T11:13:23;32.70;99.90
17632;DHT22;8934;51.194;17.150;2023-06-22T11:16:11;33.10;99.90
17632;DHT22;8934;51.194;17.150;2023-06-22T11:19:00;33.70;98.70
17632;DHT22;8934;51.194;17.150;2023-06-22T11:21:48;34.00;99.70
17632;DHT22;8934;51.194;17.150;2023-06-22T11:24:35;34.20;99.10
17632;DHT22;8934;51.194;17.150;2023-06-22T11:27:23;34.10;96.70
17632;DHT22;8934;51.194;17.150;2023-06-22T11:30:11;34.10;96.30
17632;DHT22;8934;51.194;17.150;2023-06-22T11:32:59;34.10;93.80
17632;DHT22;8934;51.194;17.150;2023-06-22T11:35:48;34.10;94.60
17632;DHT22;8934;51.194;17.150;2023-06-22T11:38:36;33.90;95.80
17632;DHT22;8934;51.194;17.150;2023-06-22T11:41:25;34.10;97.20
17632;DHT22;8934;51.194;17.150;2023-06-22T11:44:13;34.70;95.70
17632;DHT22;8934;51.194;17.150;2023-06-22T11:47:00;34.80;97.70
17632;DHT22;8934;51.194;17.150;2023-06-22T11:49:50;34.90;92.70
17632;DHT22;8934;51.194;17.150;2023-06-22T11:52:38;34.30;94.20
17632;DHT22;8934;51.194;17.150;2023-06-22T11:55:26;33.60;96.80
17632;DHT22;8934;51.194;17.150;2023-06-22T11:58:14;33.00;96.70
17632;DHT22;8934;51.194;17.150;2023-06-22T12:01:01;32.40;96.40
17632;DHT22;8934;51.194;17.150;2023-06-22T12:03:49;31.90;97.40
17632;DHT22;8934;51.194;17.150;2023-06-22T12:06:38;31.50;97.20
17632;DHT22;8934;51.194;17.150;2023-06-22T12:09:29;31.30;98.80
17632;DHT22;8934;51.194;17.150;2023-06-22T12:12:17;31.70;99.60
17632;DHT22;8934;51.194;17.150;2023-06-22T12:15:05;31.80;96.60
17632;DHT22;8934;51.194;17.150;2023-06-22T12:17:53;31.90;97.70
17632;DHT22;8934;51.194;17.150;2023-06-22T12:20:41;32.20;99.00
17632;DHT22;8934;51.194;17.150;2023-06-22T12:23:29;32.10;98.30
17632;DHT22;8934;51.194;17.150;2023-06-22T12:26:17;31.90;98.40
17632;DHT22;8934;51.194;17.150;2023-06-22T12:29:05;31.80;98.40
17632;DHT22;8934;51.194;17.150;2023-06-22T12:31:53;31.90;99.90
17632;DHT22;8934;51.194;17.150;2023-06-22T12:34:41;32.30;96.70
17632;DHT22;8934;51.194;17.150;2023-06-22T12:37:29;32.50;95.00
17632;DHT22;8934;51.194;17.150;2023-06-22T12:40:17;32.70;96.90
17632;DHT22;8934;51.194;17.150;2023-06-22T12:43:06;32.90;95.80
17632;DHT22;8934;51.194;17.150;2023-06-22T12:45:55;33.00;96.10
17632;DHT22;8934;51.194;17.150;2023-06-22T12:48:43;33.30;97.00
17632;DHT22;8934;51.194;17.150;2023-06-22T12:51:31;33.70;97.30
17632;DHT22;8934;51.194;17.150;2023-06-22T12:54:18;34.30;95.80
17632;DHT22;8934;51.194;17.150;2023-06-22T12:57:06;35.20;95.20
17632;DHT22;8934;51.194;17.150;2023-06-22T12:59:56;35.60;94.50
17632;DHT22;8934;51.194;17.150;2023-06-22T13:02:44;36.00;94.40
17632;DHT22;8934;51.194;17.150;2023-06-22T13:05:32;35.80;91.00
17632;DHT22;8934;51.194;17.150;2023-06-22T13:08:21;35.60;90.50
17632;DHT22;8934;51.194;17.150;2023-06-22T13:11:28;35.50;90.20
17632;DHT22;8934;51.194;17.150;2023-06-22T13:14:16;35.60;93.00
17632;DHT22;8934;51.194;17.150;2023-06-22T13:17:05;35.60;91.60
17632;DHT22;8934;51.194;17.150;2023-06-22T13:19:53;35.40;92.30
17632;DHT22;8934;51.194;17.150;2023-06-22T13:22:41;35.60;93.20
17632;DHT22;8934;51.194;17.150;2023-06-22T13:25:29;35.70;93.20
17632;DHT22;8934;51.194;17.150;2023-06-22T13:28:17;35.90;92.40
17632;DHT22;8934;51.194;17.150;2023-06-22T13:31:14;35.80;90.70
17632;DHT22;8934;51.194;17.150;2023-06-22T13:34:03;35.40;92.20
17632;DHT22;8934;51.194;17.150;2023-06-22T13:36:51;35.00;91.50
17632;DHT22;8934;51.194;17.150;2023-06-22T13:39:41;34.70;89.10
17632;DHT22;8934;51.194;17.150;2023-06-22T13:42:28;34.60;91.50
17632;DHT22;8934;51.194;17.150;2023-06-22T13:45:16;34.40;88.50
17632;DHT22;8934;51.194;17.150;2023-06-22T13:48:05;34.60;88.20
17632;DHT22;8934;51.194;17.150;2023-06-22T13:50:54;34.80;91.60
17632;DHT22;8934;51.194;17.150;2023-06-22T13:53:42;35.20;90.80
17632;DHT22;8934;51.194;17.150;2023-06-22T13:56:30;35.40;86.90
17632;DHT22;8934;51.194;17.150;2023-06-22T13:59:18;35.80;90.40
17632;DHT22;8934;51.194;17.150;2023-06-22T14:02:06;36.00;89.50
17632;DHT22;8934;51.194;17.150;2023-06-22T14:04:54;35.70;90.20
17632;DHT22;8934;51.194;17.150;2023-06-22T14:07:43;35.30;87.00
17632;DHT22;8934;51.194;17.150;2023-06-22T14:10:31;34.60;90.00
17632;DHT22;8934;51.194;17.150;2023-06-22T14:13:18;34.00;91.70
17632;DHT22;8934;51.194;17.150;2023-06-22T14:16:06;33.80;91.20
17632;DHT22;8934;51.194;17.150;2023-06-22T14:18:54;33.60;91.50
17632;DHT22;8934;51.194;17.150;2023-06-22T14:21:43;33.50;90.30
17632;DHT22;8934;51.194;17.150;2023-06-22T14:24:33;33.50;93.80
17632;DHT22;8934;51.194;17.150;2023-06-22T14:27:20;33.60;93.60
17632;DHT22;8934;51.194;17.150;2023-06-22T14:30:08;33.90;92.40
17632;DHT22;8934;51.194;17.150;2023-06-22T14:32:56;34.10;91.80
17632;DHT22;8934;51.194;17.150;2023-06-22T14:35:44;34.20;92.20
17632;DHT22;8934;51.194;17.150;2023-06-22T14:38:31;34.70;92.10
17632;DHT22;8934;51.194;17.150;2023-06-22T14:41:21;35.20;90.80
17632;DHT22;8934;51.194;17.150;2023-06-22T14:44:09;35.40;91.50
17632;DHT22;8934;51.194;17.150;2023-06-22T14:46:57;35.40;91.20
17632;DHT22;8934;51.194;17.150;2023-06-22T14:49:44;35.20;88.80
17632;DHT22;8934;51.194;17.150;2023-06-22T14:52:32;34.90;90.20
17632;DHT22;8934;51.194;17.150;2023-06-22T14:55:19;34.70;90.90
17632;DHT22;8934;51.194;17.150;2023-06-22T14:58:09;34.60;91.50
17632;DHT22;8934;51.194;17.150;2023-06-22T15:00:57;34.60;91.50
17632;DHT22;8934;51.194;17.150;2023-06-22T15:03:44;34.90;91.90
17632;DHT22;8934;51.194;17.150;2023-06-22T15:06:32;35.50;89.00
17632;DHT22;8934;51.194;17.150;2023-06-22T15:09:19;36.00;86.70
17632;DHT22;8934;51.194;17.150;2023-06-22T15:12:07;36.40;87.90
17632;DHT22;8934;51.194;17.150;2023-06-22T15:14:59;37.00;88.80
17632;DHT22;8934;51.194;17.150;2023-06-22T15:17:46;37.00;81.50
17632;DHT22;8934;51.194;17.150;2023-06-22T15:20:34;36.40;86.20
17632;DHT22;8934;51.194;17.150;2023-06-22T15:23:22;36.10;83.40
17632;DHT22;8934;51.194;17.150;2023-06-22T15:26:09;36.00;85.90
17632;DHT22;8934;51.194;17.150;2023-06-22T15:28:57;36.00;88.90
17632;DHT22;8934;51.194;17.150;2023-06-22T15:31:46;36.30;84.20
17632;DHT22;8934;51.194;17.150;2023-06-22T15:34:34;36.30;85.50
17632;DHT22;8934;51.194;17.150;2023-06-22T15:37:24;36.40;83.40
17632;DHT22;8934;51.194;17.150;2023-06-22T15:40:12;36.50;82.60
17632;DHT22;8934;51.194;17.150;2023-06-22T15:42:59;36.80;84.60
17632;DHT22;8934;51.194;17.150;2023-06-22T15:45:47;36.70;84.10
17632;DHT22;8934;51.194;17.150;2023-06-22T15:48:37;36.70;85.50
17632;DHT22;8934;51.194;17.150;2023-06-22T15:51:24;36.70;83.40
17632;DHT22;8934;51.194;17.150;2023-06-22T15:54:12;36.60;82.70
17632;DHT22;8934;51.194;17.150;2023-06-22T15:56:59;36.40;83.00
17632;DHT22;8934;51.194;17.150;2023-06-22T15:59:47;36.40;83.40
17632;DHT22;8934;51.194;17.150;2023-06-22T16:02:35;36.50;80.90
17632;DHT22;8934;51.194;17.150;2023-06-22T16:05:24;36.60;80.00
17632;DHT22;8934;51.194;17.150;2023-06-22T16:08:12;36.60;84.80
17632;DHT22;8934;51.194;17.150;2023-06-22T16:10:59;36.70;82.30
17632;DHT22;8934;51.194;17.150;2023-06-22T16:13:47;36.70;80.10
17632;DHT22;8934;51.194;17.150;2023-06-22T16:16:34;36.80;81.60
17632;DHT22;8934;51.194;17.150;2023-06-22T16:19:22;37.10;80.60
17632;DHT22;8934;51.194;17.150;2023-06-22T16:22:11;37.20;81.30
17632;DHT22;8934;51.194;17.150;2023-06-22T16:24:59;37.40;81.90
17632;DHT22;8934;51.194;17.150;2023-06-22T16:27:47;37.50;77.60
17632;DHT22;8934;51.194;17.150;2023-06-22T16:30:35;37.40;80.60
17632;DHT22;8934;51.194;17.150;2023-06-22T16:33:22;37.50;78.30
17632;DHT22;8934;51.194;17.150;2023-06-22T16:36:11;37.50;79.10
17632;DHT22;8934;51.194;17.150;2023-06-22T16:39:00;37.30;77.80
17632;DHT22;8934;51.194;17.150;2023-06-22T16:41:49;37.20;80.60
17632;DHT22;8934;51.194;17.150;2023-06-22T16:44:36;37.10;79.20
17632;DHT22;8934;51.194;17.150;2023-06-22T16:47:24;37.00;79.20
17632;DHT22;8934;51.194;17.150;2023-06-22T16:50:12;36.80;80.30
17632;DHT22;8934;51.194;17.150;2023-06-22T16:52:59;36.70;78.70
17632;DHT22;8934;51.194;17.150;2023-06-22T16:55:49;36.70;78.40
17632;DHT22;8934;51.194;17.150;2023-06-22T16:58:39;36.70;79.40
17632;DHT22;8934;51.194;17.150;2023-06-22T17:01:33;36.60;78.60
17632;DHT22;8934;51.194;17.150;2023-06-22T17:04:23;36.50;75.90
17632;DHT22;8934;51.194;17.150;2023-06-22T17:07:13;36.20;80.30
17632;DHT22;8934;51.194;17.150;2023-06-22T17:10:01;35.90;83.70
17632;DHT22;8934;51.194;17.150;2023-06-22T17:12:51;35.70;80.30
17632;DHT22;8934;51.194;17.150;2023-06-22T17:15:40;35.50;81.50
17632;DHT22;8934;51.194;17.150;2023-06-22T17:18:30;35.30;83.20
17632;DHT22;8934;51.194;17.150;2023-06-22T17:21:21;35.00;84.80
17632;DHT22;8934;51.194;17.150;2023-06-22T17:24:09;34.70;85.50
17632;DHT22;8934;51.194;17.150;2023-06-22T17:26:58;34.50;84.90
17632;DHT22;8934;51.194;17.150;2023-06-22T17:29:51;34.10;83.80
17632;DHT22;8934;51.194;17.150;2023-06-22T17:32:50;33.50;83.90
17632;DHT22;8934;51.194;17.150;2023-06-22T17:35:45;32.90;83.10
17632;DHT22;8934;51.194;17.150;2023-06-22T17:38:36;32.50;85.60
17632;DHT22;8934;51.194;17.150;2023-06-22T17:41:31;32.30;85.00
17632;DHT22;8934;51.194;17.150;2023-06-22T17:44:21;32.20;85.90
17632;DHT22;8934;51.194;17.150;2023-06-22T17:47:10;31.90;85.60
17632;DHT22;8934;51.194;17.150;2023-06-22T17:50:05;31.70;88.90
17632;DHT22;8934;51.194;17.150;2023-06-22T17:52:53;31.60;86.20
17632;DHT22;8934;51.194;17.150;2023-06-22T17:55:41;31.40;88.90
17632;DHT22;8934;51.194;17.150;2023-06-22T17:58:29;31.30;89.70
17632;DHT22;8934;51.194;17.150;2023-06-22T18:01:16;31.10;90.10
17632;DHT22;8934;51.194;17.150;2023-06-22T18:04:17;30.90;90.10
17632;DHT22;8934;51.194;17.150;2023-06-22T18:07:05;30.50;90.40
17632;DHT22;8934;51.194;17.150;2023-06-22T18:09:53;30.10;91.50
17632;DHT22;8934;51.194;17.150;2023-06-22T18:12:44;29.60;91.60
17632;DHT22;8934;51.194;17.150;2023-06-22T18:15:33;29.10;92.30
17632;DHT22;8934;51.194;17.150;2023-06-22T18:18:21;28.70;93.40
17632;DHT22;8934;51.194;17.150;2023-06-22T18:21:12;28.30;93.30
17632;DHT22;8934;51.194;17.150;2023-06-22T18:24:01;28.00;93.80
17632;DHT22;8934;51.194;17.150;2023-06-22T18:26:49;27.70;94.50
17632;DHT22;8934;51.194;17.150;2023-06-22T18:29:39;27.40;95.10
17632;DHT22;8934;51.194;17.150;2023-06-22T18:32:28;27.10;95.80
17632;DHT22;8934;51.194;17.150;2023-06-22T18:35:16;26.80;96.20
17632;DHT22;8934;51.194;17.150;2023-06-22T18:38:06;26.50;96.60
17632;DHT22;8934;51.194;17.150;2023-06-22T18:40:54;26.30;97.10
17632;DHT22;8934;51.194;17.150;2023-06-22T18:43:41;26.10;97.90
17632;DHT22;8934;51.194;17.150;2023-06-22T18:46:35;25.80;98.30
17632;DHT22;8934;51.194;17.150;2023-06-22T18:49:23;25.50;98.80
17632;DHT22;8934;51.194;17.150;2023-06-22T18:52:15;25.20;99.00
17632;DHT22;8934;51.194;17.150;2023-06-22T18:55:05;25.00;99.60
17632;DHT22;8934;51.194;17.150;2023-06-22T18:58:13;24.80;99.90
17632;DHT22;8934;51.194;17.150;2023-06-22T19:01:15;24.50;99.90
17632;DHT22;8934;51.194;17.150;2023-06-22T19:04:14;24.30;99.90
17632;DHT22;8934;51.194;17.150;2023-06-22T19:07:02;24.00;99.90
17632;DHT22;8934;51.194;17.150;2023-06-22T19:10:21;23.80;99.90
17632;DHT22;8934;51.194;17.150;2023-06-22T19:13:44;23.60;99.90
17632;DHT22;8934;51.194;17.150;2023-06-22T19:16:34;23.40;99.90
17632;DHT22;8934;51.194;17.150;2023-06-22T19:19:23;23.20;99.90
17632;DHT22;8934;51.194;17.150;2023-06-22T19:22:11;23.10;99.90
17632;DHT22;8934;51.194;17.150;2023-06-22T19:24:59;23.00;99.90
17632;DHT22;8934;51.194;17.150;2023-06-22T19:27:50;22.80;99.90
17632;DHT22;8934;51.194;17.150;2023-06-22T19:30:41;22.70;99.90
17632;DHT22;8934;51.194;17.150;2023-06-22T19:33:29;22.50;99.90
17632;DHT22;8934;51.194;17.150;2023-06-22T19:36:20;22.40;99.90
17632;DHT22;8934;51.194;17.150;2023-06-22T19:39:08;22.20;99.90
17632;DHT22;8934;51.194;17.150;2023-06-22T19:41:55;22.10;99.90
17632;DHT22;8934;51.194;17.150;2023-06-22T19:44:44;22.00;99.90
17632;DHT22;8934;51.194;17.150;2023-06-22T19:47:34;21.80;99.90
17632;DHT22;8934;51.194;17.150;2023-06-22T19:50:22;21.80;99.90
17632;DHT22;8934;51.194;17.150;2023-06-22T19:53:13;21.70;99.90
17632;DHT22;8934;51.194;17.150;2023-06-22T19:56:01;21.60;99.90
17632;DHT22;8934;51.194;17.150;2023-06-22T19:58:48;21.50;99.90
17632;DHT22;8934;51.194;17.150;2023-06-22T20:01:39;21.40;99.90
17632;DHT22;8934;51.194;17.150;2023-06-22T20:04:27;21.30;99.90
17632;DHT22;8934;51.194;17.150;2023-06-22T20:07:14;21.20;99.90
17632;DHT22;8934;51.194;17.150;2023-06-22T20:10:10;21.20;99.90
17632;DHT22;8934;51.194;17.150;2023-06-22T20:12:58;21.10;99.90
17632;DHT22;8934;51.194;17.150;2023-06-22T20:15:46;21.10;99.90
17632;DHT22;8934;51.194;17.150;2023-06-22T20:18:35;21.10;99.90
17632;DHT22;8934;51.194;17.150;2023-06-22T20:21:24;21.00;99.90
17632;DHT22;8934;51.194;17.150;2023-06-22T20:24:12;21.00;99.90
17632;DHT22;8934;51.194;17.150;2023-06-22T20:27:00;21.00;99.90
17632;DHT22;8934;51.194;17.150;2023-06-22T20:29:47;21.00;99.90
17632;DHT22;8934;51.194;17.150;2023-06-22T20:32:46;20.90;99.90
17632;DHT22;8934;51.194;17.150;2023-06-22T20:35:35;20.90;99.90
17632;DHT22;8934;51.194;17.150;2023-06-22T20:38:23;20.80;99.90
17632;DHT22;8934;51.194;17.150;2023-06-22T20:41:10;20.70;99.90
17632;DHT22;8934;51.194;17.150;2023-06-22T20:43:58;20.70;99.90
17632;DHT22;8934;51.194;17.150;2023-06-22T20:46:45;20.70;99.90
17632;DHT22;8934;51.194;17.150;2023-06-22T20:49:33;20.70;99.90
17632;DHT22;8934;51.194;17.150;2023-06-22T20:52:23;20.70;99.90
17632;DHT22;8934;51.194;17.150;2023-06-22T20:55:11;20.70;99.90
17632;DHT22;8934;51.194;17.150;2023-06-22T20:57:58;20.70;99.90
17632;DHT22;8934;51.194;17.150;2023-06-22T21:00:45;20.70;99.90
17632;DHT22;8934;51.194;17.150;2023-06-22T21:03:33;20.70;99.90
17632;DHT22;8934;51.194;17.150;2023-06-22T21:06:21;20.70;99.90
17632;DHT22;8934;51.194;17.150;2023-06-22T21:09:10;20.60;99.90
17632;DHT22;8934;51.194;17.150;2023-06-22T21:11:58;20.60;99.90
17632;DHT22;8934;51.194;17.150;2023-06-22T21:14:46;20.60;99.90
17632;DHT22;8934;51.194;17.150;2023-06-22T21:17:34;20.60;99.90
17632;DHT22;8934;51.194;17.150;2023-06-22T21:20:21;20.60;99.90
17632;DHT22;8934;51.194;17.150;2023-06-22T21:23:09;20.60;99.90
17632;DHT22;8934;51.194;17.150;2023-06-22T21:25:57;20.60;99.90
17632;DHT22;8934;51.194;17.150;2023-06-22T21:28:45;20.70;99.90
17632;DHT22;8934;51.194;17.150;2023-06-22T21:31:33;20.70;99.90
17632;DHT22;8934;51.194;17.150;2023-06-22T21:34:21;20.80;99.90
17632;DHT22;8934;51.194;17.150;2023-06-22T21:37:09;20.80;99.90
17632;DHT22;8934;51.194;17.150;2023-06-22T21:39:57;20.80;99.90
17632;DHT22;8934;51.194;17.150;2023-06-22T21:42:48;20.80;99.90
17632;DHT22;8934;51.194;17.150;2023-06-22T21:45:36;20.80;99.90
17632;DHT22;8934;51.194;17.150;2023-06-22T21:48:24;20.80;99.90
17632;DHT22;8934;51.194;17.150;2023-06-22T21:51:11;20.80;99.90
17632;DHT22;8934;51.194;17.150;2023-06-22T21:53:59;20.80;99.90
17632;DHT22;8934;51.194;17.150;2023-06-22T21:56:46;20.80;99.90
17632;DHT22;8934;51.194;17.150;2023-06-22T21:59:35;20.80;99.90
17632;DHT22;8934;51.194;17.150;2023-06-22T22:02:23;20.80;99.90
17632;DHT22;8934;51.194;17.150;2023-06-22T22:05:11;20.80;99.90
17632;DHT22;8934;51.194;17.150;2023-06-22T22:07:58;20.80;99.90
17632;DHT22;8934;51.194;17.150;2023-06-22T22:10:46;20.80;99.90
17632;DHT22;8934;51.194;17.150;2023-06-22T22:13:33;20.70;99.90
17632;DHT22;8934;51.194;17.150;2023-06-22T22:16:22;20.70;99.90
17632;DHT22;8934;51.194;17.150;2023-06-22T22:19:10;20.70;99.90
17632;DHT22;8934;51.194;17.150;2023-06-22T22:22:00;20.60;99.90
17632;DHT22;8934;51.194;17.150;2023-06-22T22:24:47;20.60;99.90
17632;DHT22;8934;51.194;17.150;2023-06-22T22:27:35;20.60;99.90
17632;DHT22;8934;51.194;17.150;2023-06-22T22:30:22;20.60;99.90